Time;durP1;ratioP1;P1;durP2;ratioP2;P2;SDS_P1;SDS_P2;PMS_P1;PMS_P2;Temp;Humidity;BMP_temperature;BMP_pressure;BME280_temperature;BME280_humidity;BME280_pressure;Samples;Min_cycle;Max_cycle;Signal;HPM_P1;HPM_P2
2023/04/08 00:02:26;;;;;;;;;;;;;;;;;;2206883;67;1126;-21
2023/04/08 00:04:56;;;;;;;;;;;;;;;;;;2209972;67;1304;-21
2023/04/08 00:07:27;;;;;;;;;;;;;;;;;;2209731;59;1799;-22
2023/04/08 00:09:57;;;;;;;;;;;;;;;;;;2205422;59;2387;-22
2023/04/08 00:12:30;;;;;;;;;;;;;;;;;;2209280;67;1368;-22
2023/04/08 00:15:00;;;;;;;;;;;;;;;;;;2205471;59;2267;-22
2023/04/08 00:17:31;;;;;;;;;;;;;;;;;;2209646;67;1734;-22
2023/04/08 00:20:01;;;;;;;;;;;;;;;;;;2209210;67;1128;-22
2023/04/08 00:22:31;;;;;;;;;;;;;;;;;;2209552;67;1186;-22
2023/04/08 00:25:05;;;;;;;;;;;;;;;;;;2209508;67;1240;-22
2023/04/08 00:27:35;;;;;;;;;;;;;;;;;;2209534;67;1306;-22
2023/04/08 00:30:06;;;;;;;;;;;;;;;;;;2209448;67;1945;-22
2023/04/08 00:32:36;;;;;;;;;;;;;;;;;;2206054;67;1308;-22
2023/04/08 00:35:07;;;;;;;;;;;;;;;;;;2206280;64;1286;-22
2023/04/08 00:37:37;;;;;;;;;;;;;;;;;;2206465;67;1254;-22
2023/04/08 00:40:07;;;;;;;;;;;;;;;;;;2210372;67;1705;-22
2023/04/08 00:42:38;;;;;;;;;;;;;;;;;;2209446;59;1538;-22
2023/04/08 00:45:08;;;;;;;;;;;;;;;;;;2209729;67;1733;-22
2023/04/08 00:47:38;;;;;;;;;;;;;;;;;;2209813;67;1203;-22
2023/04/08 00:50:09;;;;;;;;;;;;;;;;;;2209144;59;1996;-23
2023/04/08 00:52:40;;;;;;;;;;;;;;;;;;2205747;59;2439;-23
2023/04/08 00:55:10;;;;;;;;;;;;;;;;;;2208959;59;2236;-24
2023/04/08 00:57:40;;;;;;;;;;;;;;;;;;2209632;59;2196;-23
2023/04/08 01:00:11;;;;;;;;;;;;;;;;;;2210034;67;1642;-24
2023/04/08 01:02:42;;;;;;;;;;;;;;;;;;2208735;67;1355;-24
2023/04/08 01:05:22;;;;;;;;;;;;;;;;;;2208768;59;2036;-23
2023/04/08 01:07:53;;;;;;;;;;;;;;;;;;2209351;59;1386;-23
2023/04/08 01:10:32;;;;;;;;;;;;;;;;;;2209208;59;1936;-24
2023/04/08 01:13:09;;;;;;;;;;;;;;;;;;2209727;67;1938;-24
2023/04/08 01:15:41;;;;;;;;;;;;;;;;;;2208964;67;1137;-24
2023/04/08 01:18:12;;;;;;;;;;;;;;;;;;2209791;67;1789;-24
2023/04/08 01:20:43;;;;;;;;;;;;;;;;;;2209611;67;1614;-24
2023/04/08 01:23:25;;;;;;;;;;;;;;;;;;2209827;67;1683;-24
2023/04/08 01:25:56;;;;;;;;;;;;;;;;;;2209758;67;1928;-24
2023/04/08 01:28:28;;;;;;;;;;;;;;;;;;2209309;67;1949;-24
2023/04/08 01:30:59;;;;;;;;;;;;;;;;;;2209906;59;1795;-24
2023/04/08 01:33:30;;;;;;;;;;;;;;;;;;2209626;67;1721;-24
2023/04/08 01:36:00;;;;;;;;;;;;;;;;;;2210134;59;1619;-23
2023/04/08 01:38:32;;;;;;;;;;;;;;;;;;2209766;67;1527;-24
2023/04/08 01:41:03;;;;;;;;;;;;;;;;;;2210175;59;1702;-24
2023/04/08 01:43:34;;;;;;;;;;;;;;;;;;2209390;67;1686;-23
2023/04/08 01:46:05;;;;;;;;;;;;;;;;;;2210451;67;1626;-24
2023/04/08 01:48:36;;;;;;;;;;;;;;;;;;2209281;67;1940;-25
2023/04/08 01:51:07;;;;;;;;;;;;;;;;;;2209317;67;1388;-24
2023/04/08 01:53:38;;;;;;;;;;;;;;;;;;2208915;67;2839;-25
2023/04/08 01:56:11;;;;;;;;;;;;;;;;;;2207916;67;2280;-24
2023/04/08 01:58:45;;;;;;;;;;;;;;;;;;2201351;59;3648;-25
2023/04/08 02:01:17;;;;;;;;;;;;;;;;;;2199168;67;1153;-25
2023/04/08 02:03:47;;;;;;;;;;;;;;;;;;2201727;59;2067;-25
2023/04/08 02:06:17;;;;;;;;;;;;;;;;;;2196119;60;1837;-26
2023/04/08 02:08:48;;;;;;;;;;;;;;;;;;2198860;59;1996;-25
2023/04/08 02:11:18;;;;;;;;;;;;;;;;;;2197911;59;1946;-25
2023/04/08 02:13:48;;;;;;;;;;;;;;;;;;2198061;67;1153;-25
2023/04/08 02:16:22;;;;;;;;;;;;;;;;;;2196166;67;1891;-25
2023/04/08 02:18:59;;;;;;;;;;;;;;;;;;2196775;59;2440;-25
2023/04/08 02:21:33;;;;;;;;;;;;;;;;;;2198504;67;1593;-25
2023/04/08 02:24:04;;;;;;;;;;;;;;;;;;2195404;67;1163;-25
2023/04/08 02:26:38;;;;;;;;;;;;;;;;;;2199360;67;1785;-24
2023/04/08 02:29:11;;;;;;;;;;;;;;;;;;2199236;67;1944;-24
2023/04/08 02:31:42;;;;;;;;;;;;;;;;;;2198367;67;1511;-24
2023/04/08 02:34:12;;;;;;;;;;;;;;;;;;2197900;67;2014;-24
2023/04/08 02:36:44;;;;;;;;;;;;;;;;;;2198347;59;1388;-24
2023/04/08 02:39:15;;;;;;;;;;;;;;;;;;2197785;67;2040;-24
2023/04/08 02:41:45;;;;;;;;;;;;;;;;;;2197713;59;1666;-24
2023/04/08 02:44:15;;;;;;;;;;;;;;;;;;2194466;67;1194;-24
2023/04/08 02:46:46;;;;;;;;;;;;;;;;;;2193230;67;1691;-25
2023/04/08 02:49:16;;;;;;;;;;;;;;;;;;2197594;59;1999;-24
2023/04/08 02:51:49;;;;;;;;;;;;;;;;;;2198085;67;1803;-24
2023/04/08 02:54:19;;;;;;;;;;;;;;;;;;2197917;60;2293;-24
2023/04/08 02:56:53;;;;;;;;;;;;;;;;;;2196307;62;2294;-24
2023/04/08 02:59:23;;;;;;;;;;;;;;;;;;2198101;67;1731;-25
2023/04/08 03:01:53;;;;;;;;;;;;;;;;;;2198105;67;1447;-24
2023/04/08 03:04:23;;;;;;;;;;;;;;;;;;2197891;67;1811;-25
2023/04/08 03:06:53;;;;;;;;;;;;;;;;;;2197770;67;1826;-24
2023/04/08 03:09:24;;;;;;;;;;;;;;;;;;2197645;59;2335;-25
2023/04/08 03:11:54;;;;;;;;;;;;;;;;;;2197206;67;1432;-24
2023/04/08 03:14:24;;;;;;;;;;;;;;;;;;2197784;59;1296;-26
2023/04/08 03:16:55;;;;;;;;;;;;;;;;;;2197394;67;1332;-26
2023/04/08 03:19:25;;;;;;;;;;;;;;;;;;2197864;67;1346;-26
2023/04/08 03:21:55;;;;;;;;;;;;;;;;;;2197624;67;1898;-26
2023/04/08 03:24:25;;;;;;;;;;;;;;;;;;2197555;67;1221;-26
2023/04/08 03:26:55;;;;;;;;;;;;;;;;;;2197063;67;1306;-26
2023/04/08 03:29:26;;;;;;;;;;;;;;;;;;2197658;67;1929;-26
2023/04/08 03:31:56;;;;;;;;;;;;;;;;;;2197910;59;1885;-34
2023/04/08 03:34:26;;;;;;;;;;;;;;;;;;2194192;67;1462;-25
2023/04/08 03:36:56;;;;;;;;;;;;;;;;;;2197846;59;1859;-25
2023/04/08 03:39:27;;;;;;;;;;;;;;;;;;2197800;67;1763;-26
2023/04/08 03:41:59;;;;;;;;;;;;;;;;;;2197502;59;1667;-26
2023/04/08 03:44:29;;;;;;;;;;;;;;;;;;2194152;67;1337;-26
2023/04/08 03:47:00;;;;;;;;;;;;;;;;;;2197574;67;1510;-25
2023/04/08 03:49:30;;;;;;;;;;;;;;;;;;2189479;67;1939;-26
2023/04/08 03:52:00;;;;;;;;;;;;;;;;;;2197409;67;1468;-26
2023/04/08 03:54:31;;;;;;;;;;;;;;;;;;2197766;67;1791;-26
2023/04/08 03:57:01;;;;;;;;;;;;;;;;;;2195787;59;2291;-26
2023/04/08 03:59:32;;;;;;;;;;;;;;;;;;2197442;67;2321;-26
2023/04/08 04:02:03;;;;;;;;;;;;;;;;;;2197480;67;1316;-26
2023/04/08 04:04:34;;;;;;;;;;;;;;;;;;2197817;67;1487;-26
2023/04/08 04:07:04;;;;;;;;;;;;;;;;;;2197579;67;1787;-25
2023/04/08 04:09:35;;;;;;;;;;;;;;;;;;2197387;59;1998;-26
2023/04/08 04:12:05;;;;;;;;;;;;;;;;;;2194183;67;1222;-25
2023/04/08 04:14:35;;;;;;;;;;;;;;;;;;2197203;67;1309;-25
2023/04/08 04:17:05;;;;;;;;;;;;;;;;;;2197952;67;1732;-25
2023/04/08 04:19:36;;;;;;;;;;;;;;;;;;2197721;67;1415;-25
2023/04/08 04:22:06;;;;;;;;;;;;;;;;;;2197326;67;1758;-25
2023/04/08 04:24:36;;;;;;;;;;;;;;;;;;2197866;67;1766;-25
2023/04/08 04:27:09;;;;;;;;;;;;;;;;;;2197539;67;1318;-24
2023/04/08 04:29:39;;;;;;;;;;;;;;;;;;2197318;67;1937;-25
2023/04/08 04:32:10;;;;;;;;;;;;;;;;;;2197497;59;1375;-24
2023/04/08 04:34:40;;;;;;;;;;;;;;;;;;2197596;59;1648;-24
2023/04/08 04:37:10;;;;;;;;;;;;;;;;;;2197452;67;1810;-24
2023/04/08 04:39:42;;;;;;;;;;;;;;;;;;2197577;60;1421;-24
2023/04/08 04:42:12;;;;;;;;;;;;;;;;;;2197573;59;1373;-23
2023/04/08 04:44:43;;;;;;;;;;;;;;;;;;2194428;67;1808;-23
2023/04/08 04:47:14;;;;;;;;;;;;;;;;;;2194170;59;1758;-24
2023/04/08 04:49:45;;;;;;;;;;;;;;;;;;2197362;59;2064;-23
2023/04/08 04:52:15;;;;;;;;;;;;;;;;;;2194302;67;1651;-23
2023/04/08 04:54:45;;;;;;;;;;;;;;;;;;2193836;67;1899;-24
2023/04/08 04:57:15;;;;;;;;;;;;;;;;;;2193652;59;2814;-24
2023/04/08 04:59:46;;;;;;;;;;;;;;;;;;2196778;59;2330;-23
2023/04/08 05:02:16;;;;;;;;;;;;;;;;;;2197534;67;1669;-24
2023/04/08 05:04:46;;;;;;;;;;;;;;;;;;2194294;67;1790;-24
2023/04/08 05:07:16;;;;;;;;;;;;;;;;;;2197840;67;1904;-23
2023/04/08 05:09:46;;;;;;;;;;;;;;;;;;2197460;59;1932;-24
2023/04/08 05:12:19;;;;;;;;;;;;;;;;;;2197357;59;2243;-24
2023/04/08 05:14:49;;;;;;;;;;;;;;;;;;2197182;59;2064;-25
2023/04/08 05:17:19;;;;;;;;;;;;;;;;;;2197262;67;1680;-26
2023/04/08 05:19:50;;;;;;;;;;;;;;;;;;2197758;67;2003;-25
2023/04/08 05:22:21;;;;;;;;;;;;;;;;;;2197700;67;2039;-25
2023/04/08 05:24:51;;;;;;;;;;;;;;;;;;2197394;67;1929;-25
2023/04/08 05:27:21;;;;;;;;;;;;;;;;;;2193296;67;1787;-25
2023/04/08 05:29:52;;;;;;;;;;;;;;;;;;2193669;59;1939;-25
2023/04/08 05:32:22;;;;;;;;;;;;;;;;;;2197285;67;1354;-25
2023/04/08 05:34:52;;;;;;;;;;;;;;;;;;2197624;59;1809;-24
2023/04/08 05:37:22;;;;;;;;;;;;;;;;;;2194271;67;1243;-26
2023/04/08 05:39:53;;;;;;;;;;;;;;;;;;2196514;59;2158;-24
2023/04/08 05:42:23;;;;;;;;;;;;;;;;;;2197495;59;1312;-25
2023/04/08 05:44:53;;;;;;;;;;;;;;;;;;2197045;59;2140;-24
2023/04/08 05:47:23;;;;;;;;;;;;;;;;;;2196968;59;2225;-24
2023/04/08 05:49:53;;;;;;;;;;;;;;;;;;2196991;59;2245;-25
2023/04/08 05:52:24;;;;;;;;;;;;;;;;;;2198032;67;1109;-24
2023/04/08 05:54:54;;;;;;;;;;;;;;;;;;2197795;59;2169;-25
2023/04/08 05:57:24;;;;;;;;;;;;;;;;;;2197780;59;2259;-29
2023/04/08 05:59:54;;;;;;;;;;;;;;;;;;2195991;59;2266;-24
2023/04/08 06:02:25;;;;;;;;;;;;;;;;;;2198095;67;1193;-24
2023/04/08 06:04:55;;;;;;;;;;;;;;;;;;2197167;59;2114;-24
2023/04/08 06:07:25;;;;;;;;;;;;;;;;;;2197690;59;1295;-24
2023/04/08 06:09:55;;;;;;;;;;;;;;;;;;2193504;59;2217;-24
2023/04/08 06:12:26;;;;;;;;;;;;;;;;;;2197906;67;1313;-24
2023/04/08 06:14:56;;;;;;;;;;;;;;;;;;2197545;59;2028;-24
2023/04/08 06:17:26;;;;;;;;;;;;;;;;;;2198309;67;1239;-24
2023/04/08 06:19:56;;;;;;;;;;;;;;;;;;2197150;59;2132;-24
2023/04/08 06:22:27;;;;;;;;;;;;;;;;;;2198333;67;1297;-25
2023/04/08 06:24:57;;;;;;;;;;;;;;;;;;2194518;59;2011;-25
2023/04/08 06:27:27;;;;;;;;;;;;;;;;;;2196806;67;2322;-24
2023/04/08 06:29:58;;;;;;;;;;;;;;;;;;2197144;59;2091;-24
2023/04/08 06:32:28;;;;;;;;;;;;;;;;;;2198087;67;1365;-24
2023/04/08 06:34:58;;;;;;;;;;;;;;;;;;2195574;59;2214;-24
2023/04/08 06:37:28;;;;;;;;;;;;;;;;;;2195788;59;2115;-24
2023/04/08 06:39:59;;;;;;;;;;;;;;;;;;2196537;67;2201;-24
2023/04/08 06:42:29;;;;;;;;;;;;;;;;;;2197166;59;1711;-24
2023/04/08 06:44:59;;;;;;;;;;;;;;;;;;2197267;67;1901;-24
2023/04/08 06:47:29;;;;;;;;;;;;;;;;;;2194210;59;2280;-26
2023/04/08 06:50:00;;;;;;;;;;;;;;;;;;2196824;67;1935;-26
2023/04/08 06:52:30;;;;;;;;;;;;;;;;;;2194356;59;2190;-24
2023/04/08 06:55:00;;;;;;;;;;;;;;;;;;2191932;59;1523;-24
2023/04/08 06:57:30;;;;;;;;;;;;;;;;;;2192529;59;2122;-25
2023/04/08 07:00:01;;;;;;;;;;;;;;;;;;2196244;59;2611;-24
2023/04/08 07:02:31;;;;;;;;;;;;;;;;;;2197268;59;2258;-24
2023/04/08 07:05:01;;;;;;;;;;;;;;;;;;2192265;67;1651;-24
2023/04/08 07:07:32;;;;;;;;;;;;;;;;;;2197080;59;2311;-23
2023/04/08 07:10:03;;;;;;;;;;;;;;;;;;2196962;59;1998;-23
2023/04/08 07:12:33;;;;;;;;;;;;;;;;;;2197243;59;2230;-24
2023/04/08 07:15:03;;;;;;;;;;;;;;;;;;2197792;67;1787;-23
2023/04/08 07:17:34;;;;;;;;;;;;;;;;;;2197467;59;2535;-23
2023/04/08 07:20:05;;;;;;;;;;;;;;;;;;2196939;59;2240;-25
2023/04/08 07:22:35;;;;;;;;;;;;;;;;;;2194086;59;2233;-25
2023/04/08 07:25:08;;;;;;;;;;;;;;;;;;2197435;59;2316;-25
2023/04/08 07:27:38;;;;;;;;;;;;;;;;;;2192861;67;2188;-25
2023/04/08 07:30:09;;;;;;;;;;;;;;;;;;2198089;67;1952;-25
2023/04/08 07:32:39;;;;;;;;;;;;;;;;;;2198720;59;2235;-25
2023/04/08 07:35:10;;;;;;;;;;;;;;;;;;2199282;59;1355;-25
2023/04/08 07:37:40;;;;;;;;;;;;;;;;;;2195053;59;2279;-25
2023/04/08 07:40:11;;;;;;;;;;;;;;;;;;2199395;59;1874;-25
2023/04/08 07:42:41;;;;;;;;;;;;;;;;;;2199018;59;2090;-25
2023/04/08 07:45:11;;;;;;;;;;;;;;;;;;2199693;67;1815;-27
2023/04/08 07:47:44;;;;;;;;;;;;;;;;;;2198508;59;2050;-27
2023/04/08 07:50:15;;;;;;;;;;;;;;;;;;2202736;59;1919;-27
2023/04/08 07:52:45;;;;;;;;;;;;;;;;;;2196180;64;2147;-27
2023/04/08 07:55:15;;;;;;;;;;;;;;;;;;2203506;67;1688;-27
2023/04/08 07:57:45;;;;;;;;;;;;;;;;;;2201279;59;2362;-27
2023/04/08 08:00:20;;;;;;;;;;;;;;;;;;2197071;64;2746;-27
2023/04/08 08:02:50;;;;;;;;;;;;;;;;;;2197963;59;2170;-27
2023/04/08 08:05:20;;;;;;;;;;;;;;;;;;2197083;59;2076;-27
2023/04/08 08:07:51;;;;;;;;;;;;;;;;;;2195403;59;2411;-27
2023/04/08 08:10:21;;;;;;;;;;;;;;;;;;2191953;59;2203;-27
2023/04/08 08:12:52;;;;;;;;;;;;;;;;;;2196615;59;2174;-27
2023/04/08 08:15:22;;;;;;;;;;;;;;;;;;2197769;67;2276;-27
2023/04/08 08:17:52;;;;;;;;;;;;;;;;;;2193698;67;1762;-27
2023/04/08 08:20:22;;;;;;;;;;;;;;;;;;2195564;67;1369;-27
2023/04/08 08:22:52;;;;;;;;;;;;;;;;;;2197284;67;2147;-26
2023/04/08 08:25:23;;;;;;;;;;;;;;;;;;2197738;67;1917;-27
2023/04/08 08:27:54;;;;;;;;;;;;;;;;;;2197757;67;1834;-26
2023/04/08 08:30:25;;;;;;;;;;;;;;;;;;2193602;59;2133;-26
2023/04/08 08:32:57;;;;;;;;;;;;;;;;;;2197199;59;1751;-26
2023/04/08 08:35:28;;;;;;;;;;;;;;;;;;2197429;59;1709;-26
2023/04/08 08:37:58;;;;;;;;;;;;;;;;;;2197987;67;1674;-26
2023/04/08 08:40:28;;;;;;;;;;;;;;;;;;2197013;59;1747;-27
2023/04/08 08:43:00;;;;;;;;;;;;;;;;;;2197262;59;1954;-27
2023/04/08 08:45:30;;;;;;;;;;;;;;;;;;2198043;67;2410;-27
2023/04/08 08:48:01;;;;;;;;;;;;;;;;;;2197415;67;2387;-27
2023/04/08 08:50:31;;;;;;;;;;;;;;;;;;2197481;59;2335;-26
2023/04/08 08:53:02;;;;;;;;;;;;;;;;;;2195104;67;1738;-27
2023/04/08 08:55:37;;;;;;;;;;;;;;;;;;2197546;67;2178;-27
2023/04/08 08:58:07;;;;;;;;;;;;;;;;;;2197919;59;2171;-27
2023/04/08 09:00:39;;;;;;;;;;;;;;;;;;2197558;59;2488;-27
2023/04/08 09:03:23;;;;;;;;;;;;;;;;;;2197887;67;2523;-24
2023/04/08 09:05:54;;;;;;;;;;;;;;;;;;2197565;67;2133;-25
2023/04/08 09:08:25;;;;;;;;;;;;;;;;;;2198023;67;1624;-25
2023/04/08 09:10:55;;;;;;;;;;;;;;;;;;2196924;59;2210;-25
2023/04/08 09:13:34;;;;;;;;;;;;;;;;;;2194213;67;1639;-25
2023/04/08 09:16:07;;;;;;;;;;;;;;;;;;2197117;59;2149;-24
2023/04/08 09:18:39;;;;;;;;;;;;;;;;;;2197363;67;2124;-24
2023/04/08 09:21:10;;;;;;;;;;;;;;;;;;2197351;67;1658;-24
2023/04/08 09:23:42;;;;;;;;;;;;;;;;;;2196833;67;2537;-24
2023/04/08 09:26:13;;;;;;;;;;;;;;;;;;2197509;67;1653;-24
2023/04/08 09:28:56;;;;;;;;;;;;;;;;;;2197298;67;1989;-24
2023/04/08 09:31:28;;;;;;;;;;;;;;;;;;2197791;67;1957;-24
2023/04/08 09:33:59;;;;;;;;;;;;;;;;;;2197486;67;2329;-24
2023/04/08 09:36:30;;;;;;;;;;;;;;;;;;2189863;59;2358;-24
2023/04/08 09:39:00;;;;;;;;;;;;;;;;;;2197121;59;1962;-24
2023/04/08 09:41:33;;;;;;;;;;;;;;;;;;2197481;59;1795;-24
2023/04/08 09:44:07;;;;;;;;;;;;;;;;;;2196863;60;2291;-24
2023/04/08 09:46:37;;;;;;;;;;;;;;;;;;2196945;67;1707;-24
2023/04/08 09:49:22;;;;;;;;;;;;;;;;;;2197483;59;2009;-24
2023/04/08 09:52:01;;;;;;;;;;;;;;;;;;2197244;67;2112;-24
2023/04/08 09:54:50;;;;;;;;;;;;;;;;;;2192462;67;1704;-24
2023/04/08 09:57:23;;;;;;;;;;;;;;;;;;2197553;67;2076;-24
2023/04/08 10:00:07;;;;;;;;;;;;;;;;;;2197193;67;1757;-24
2023/04/08 10:03:00;;;;;;;;;;;;;;;;;;2192979;67;1728;-24
2023/04/08 10:05:31;;;;;;;;;;;;;;;;;;2193962;67;1853;-24
2023/04/08 10:08:05;;;;;;;;;;;;;;;;;;2196963;67;2220;-24
2023/04/08 10:10:38;;;;;;;;;;;;;;;;;;2193770;59;2284;-24
2023/04/08 10:13:08;;;;;;;;;;;;;;;;;;2197533;67;2003;-24
2023/04/08 10:15:41;;;;;;;;;;;;;;;;;;2197625;67;2046;-22
2023/04/08 10:18:17;;;;;;;;;;;;;;;;;;2196413;59;2074;-22
2023/04/08 10:20:48;;;;;;;;;;;;;;;;;;2197012;67;1891;-22
2023/04/08 10:23:38;;;;;;;;;;;;;;;;;;2197456;67;2332;-22
2023/04/08 10:26:28;;;;;;;;;;;;;;;;;;2198305;59;2212;-22
2023/04/08 10:29:17;;;;;;;;;;;;;;;;;;2197651;59;1940;-22
2023/04/08 10:31:48;;;;;;;;;;;;;;;;;;2196689;59;1194;-23
2023/04/08 10:34:23;;;;;;;;;;;;;;;;;;2197302;59;1296;-23
2023/04/08 10:36:55;;;;;;;;;;;;;;;;;;2197622;59;1466;-22
2023/04/08 10:39:26;;;;;;;;;;;;;;;;;;2197769;67;1092;-23
2023/04/08 10:41:56;;;;;;;;;;;;;;;;;;2196958;59;1378;-23
2023/04/08 10:44:26;;;;;;;;;;;;;;;;;;2197849;67;1334;-22
2023/04/08 10:46:57;;;;;;;;;;;;;;;;;;2197786;67;1230;-22
2023/04/08 10:49:36;;;;;;;;;;;;;;;;;;2195093;59;2003;-23
2023/04/08 10:52:08;;;;;;;;;;;;;;;;;;2197772;67;1132;-23
2023/04/08 10:54:45;;;;;;;;;;;;;;;;;;2197754;67;1105;-23
2023/04/08 10:57:22;;;;;;;;;;;;;;;;;;2197641;67;2279;-22
2023/04/08 10:59:52;;;;;;;;;;;;;;;;;;2197438;59;1619;-23
2023/04/08 11:02:30;;;;;;;;;;;;;;;;;;2197690;67;1079;-23
2023/04/08 11:05:01;;;;;;;;;;;;;;;;;;2197277;59;1558;-23
2023/04/08 11:07:31;;;;;;;;;;;;;;;;;;2197704;67;1237;-22
2023/04/08 11:10:02;;;;;;;;;;;;;;;;;;2197763;59;1991;-23
2023/04/08 11:12:33;;;;;;;;;;;;;;;;;;2197656;59;1706;-22
2023/04/08 11:15:03;;;;;;;;;;;;;;;;;;2197546;67;1105;-22
2023/04/08 11:17:35;;;;;;;;;;;;;;;;;;2195705;67;2148;-23
2023/04/08 11:20:07;;;;;;;;;;;;;;;;;;2191761;67;1390;-23
2023/04/08 11:22:40;;;;;;;;;;;;;;;;;;2197119;59;1178;-23
2023/04/08 11:25:10;;;;;;;;;;;;;;;;;;2197191;59;1921;-23
2023/04/08 11:27:41;;;;;;;;;;;;;;;;;;2197810;59;2249;-23
2023/04/08 11:30:12;;;;;;;;;;;;;;;;;;2193962;59;1937;-22
2023/04/08 11:32:43;;;;;;;;;;;;;;;;;;2195341;59;1605;-23
2023/04/08 11:35:15;;;;;;;;;;;;;;;;;;2197547;59;1260;-23
2023/04/08 11:37:46;;;;;;;;;;;;;;;;;;2193788;67;1867;-23
2023/04/08 11:40:19;;;;;;;;;;;;;;;;;;2196686;59;1603;-23
2023/04/08 11:42:50;;;;;;;;;;;;;;;;;;2197511;64;1472;-22
2023/04/08 11:45:20;;;;;;;;;;;;;;;;;;2197464;67;1646;-22
2023/04/08 11:47:51;;;;;;;;;;;;;;;;;;2197023;67;1199;-23
2023/04/08 11:50:23;;;;;;;;;;;;;;;;;;2193822;67;1976;-23
2023/04/08 11:52:54;;;;;;;;;;;;;;;;;;2193992;67;1495;-22
2023/04/08 11:55:25;;;;;;;;;;;;;;;;;;2194339;67;1756;-22
2023/04/08 11:58:00;;;;;;;;;;;;;;;;;;2196980;59;1218;-22
2023/04/08 12:00:31;;;;;;;;;;;;;;;;;;2197302;59;1172;-22
2023/04/08 12:03:02;;;;;;;;;;;;;;;;;;2197337;67;1303;-22
2023/04/08 12:05:32;;;;;;;;;;;;;;;;;;2197546;67;1132;-22
2023/04/08 12:08:03;;;;;;;;;;;;;;;;;;2197699;67;1291;-22
2023/04/08 12:10:36;;;;;;;;;;;;;;;;;;2197468;59;1988;-22
2023/04/08 12:13:07;;;;;;;;;;;;;;;;;;2197474;67;1307;-22
2023/04/08 12:15:37;;;;;;;;;;;;;;;;;;2197514;67;1178;-22
2023/04/08 12:18:07;;;;;;;;;;;;;;;;;;2197484;67;1273;-22
2023/04/08 12:20:38;;;;;;;;;;;;;;;;;;2196951;67;1681;-22
2023/04/08 12:23:08;;;;;;;;;;;;;;;;;;2194208;59;1218;-22
2023/04/08 12:25:38;;;;;;;;;;;;;;;;;;2197662;67;1803;-22
2023/04/08 12:28:10;;;;;;;;;;;;;;;;;;2197788;67;1298;-22
2023/04/08 12:30:40;;;;;;;;;;;;;;;;;;2195277;67;1976;-22
2023/04/08 12:33:10;;;;;;;;;;;;;;;;;;2197740;59;1188;-22
2023/04/08 12:35:43;;;;;;;;;;;;;;;;;;2197575;59;1373;-25
2023/04/08 12:38:14;;;;;;;;;;;;;;;;;;2197390;67;1337;-25
2023/04/08 12:40:44;;;;;;;;;;;;;;;;;;2195829;59;2016;-26
2023/04/08 12:43:14;;;;;;;;;;;;;;;;;;2196695;59;2642;-26
2023/04/08 12:45:45;;;;;;;;;;;;;;;;;;2196626;59;2070;-26
2023/04/08 12:48:15;;;;;;;;;;;;;;;;;;2197137;67;1242;-26
2023/04/08 12:50:45;;;;;;;;;;;;;;;;;;2196707;59;2243;-26
2023/04/08 12:53:16;;;;;;;;;;;;;;;;;;2195508;59;2654;-26
2023/04/08 12:55:46;;;;;;;;;;;;;;;;;;2195976;59;2720;-27
2023/04/08 12:58:16;;;;;;;;;;;;;;;;;;2197652;59;2072;-27
2023/04/08 13:00:48;;;;;;;;;;;;;;;;;;2196891;59;2110;-27
2023/04/08 13:03:18;;;;;;;;;;;;;;;;;;2197373;67;1130;-26
2023/04/08 13:05:49;;;;;;;;;;;;;;;;;;2189497;59;2082;-27
2023/04/08 13:08:19;;;;;;;;;;;;;;;;;;2196256;59;1759;-26
2023/04/08 13:10:49;;;;;;;;;;;;;;;;;;2195932;59;2197;-26
2023/04/08 13:13:20;;;;;;;;;;;;;;;;;;2196557;59;1757;-26
2023/04/08 13:15:50;;;;;;;;;;;;;;;;;;2196261;59;2091;-26
2023/04/08 13:18:21;;;;;;;;;;;;;;;;;;2193672;67;1362;-26
2023/04/08 13:20:53;;;;;;;;;;;;;;;;;;2195622;59;2224;-26
2023/04/08 13:23:23;;;;;;;;;;;;;;;;;;2196440;59;1765;-26
2023/04/08 13:25:53;;;;;;;;;;;;;;;;;;2192371;59;2130;-26
2023/04/08 13:28:24;;;;;;;;;;;;;;;;;;2192635;67;1967;-26
2023/04/08 13:30:54;;;;;;;;;;;;;;;;;;2196265;59;2374;-26
2023/04/08 13:33:25;;;;;;;;;;;;;;;;;;2196721;59;1299;-26
2023/04/08 13:35:55;;;;;;;;;;;;;;;;;;2196109;59;2000;-26
2023/04/08 13:38:25;;;;;;;;;;;;;;;;;;2196374;59;2303;-26
2023/04/08 13:40:55;;;;;;;;;;;;;;;;;;2196806;59;1688;-26
2023/04/08 13:43:26;;;;;;;;;;;;;;;;;;2197199;59;2526;-26
2023/04/08 13:45:56;;;;;;;;;;;;;;;;;;2197558;67;1309;-26
2023/04/08 13:48:26;;;;;;;;;;;;;;;;;;2196360;59;2188;-26
2023/04/08 13:50:56;;;;;;;;;;;;;;;;;;2190927;59;2177;-26
2023/04/08 13:53:27;;;;;;;;;;;;;;;;;;2196932;59;2046;-26
2023/04/08 13:55:57;;;;;;;;;;;;;;;;;;2192118;59;2661;-26
2023/04/08 13:58:28;;;;;;;;;;;;;;;;;;2201949;59;3812;-18
2023/04/08 14:00:58;;;;;;;;;;;;;;;;;;2200703;67;1588;-18
2023/04/08 14:03:29;;;;;;;;;;;;;;;;;;2208245;59;2055;-18
2023/04/08 14:06:00;;;;;;;;;;;;;;;;;;2208476;59;2105;-19
2023/04/08 14:08:30;;;;;;;;;;;;;;;;;;2208916;67;1212;-18
2023/04/08 14:11:00;;;;;;;;;;;;;;;;;;2210221;59;1918;-19
2023/04/08 14:13:31;;;;;;;;;;;;;;;;;;2209710;67;1422;-18
2023/04/08 14:16:01;;;;;;;;;;;;;;;;;;2206592;67;2349;-19
2023/04/08 14:18:32;;;;;;;;;;;;;;;;;;2207013;67;1225;-19
2023/04/08 14:21:03;;;;;;;;;;;;;;;;;;2202262;67;1465;-18
2023/04/08 14:23:33;;;;;;;;;;;;;;;;;;2204661;67;1692;-18
2023/04/08 14:26:05;;;;;;;;;;;;;;;;;;2202190;67;1195;-18
2023/04/08 14:28:36;;;;;;;;;;;;;;;;;;2209020;67;1448;-18
2023/04/08 14:31:07;;;;;;;;;;;;;;;;;;2209428;59;1943;-19
2023/04/08 14:33:38;;;;;;;;;;;;;;;;;;2209524;59;1766;-18
2023/04/08 14:36:08;;;;;;;;;;;;;;;;;;2208878;59;1542;-18
2023/04/08 14:38:39;;;;;;;;;;;;;;;;;;2207116;60;1838;-18
2023/04/08 14:41:09;;;;;;;;;;;;;;;;;;2205376;59;1365;-18
2023/04/08 14:43:40;;;;;;;;;;;;;;;;;;2205636;67;1276;-18
2023/04/08 14:46:10;;;;;;;;;;;;;;;;;;2205766;67;1704;-18
2023/04/08 14:48:40;;;;;;;;;;;;;;;;;;2203241;67;1700;-18
2023/04/08 14:51:10;;;;;;;;;;;;;;;;;;2199307;59;2204;-18
2023/04/08 14:53:41;;;;;;;;;;;;;;;;;;2201868;67;1212;-18
2023/04/08 14:56:11;;;;;;;;;;;;;;;;;;2203910;59;2244;-20
2023/04/08 14:58:41;;;;;;;;;;;;;;;;;;2204502;59;2646;-20
2023/04/08 15:01:12;;;;;;;;;;;;;;;;;;2205469;59;1162;-20
2023/04/08 15:03:42;;;;;;;;;;;;;;;;;;2203699;59;2209;-20
2023/04/08 15:06:15;;;;;;;;;;;;;;;;;;2205605;59;1919;-20
2023/04/08 15:08:45;;;;;;;;;;;;;;;;;;2205792;67;1215;-20
2023/04/08 15:11:18;;;;;;;;;;;;;;;;;;2205428;59;2005;-20
2023/04/08 15:13:48;;;;;;;;;;;;;;;;;;2204536;67;1157;-20
2023/04/08 15:16:19;;;;;;;;;;;;;;;;;;2204801;59;2168;-20
2023/04/08 15:18:49;;;;;;;;;;;;;;;;;;2205095;67;1303;-20
2023/04/08 15:21:21;;;;;;;;;;;;;;;;;;2205599;59;1291;-20
2023/04/08 15:23:52;;;;;;;;;;;;;;;;;;2204663;59;1393;-20
2023/04/08 15:26:23;;;;;;;;;;;;;;;;;;2205653;67;1285;-20
2023/04/08 15:28:56;;;;;;;;;;;;;;;;;;2205346;67;1937;-20
2023/04/08 15:31:26;;;;;;;;;;;;;;;;;;2200204;59;1993;-20
2023/04/08 15:33:57;;;;;;;;;;;;;;;;;;2204642;67;1818;-20
2023/04/08 15:36:28;;;;;;;;;;;;;;;;;;2204698;59;1268;-20
2023/04/08 15:38:58;;;;;;;;;;;;;;;;;;2204380;67;1345;-20
2023/04/08 15:41:30;;;;;;;;;;;;;;;;;;2205013;67;1328;-20
2023/04/08 15:44:00;;;;;;;;;;;;;;;;;;2204671;67;1359;-20
2023/04/08 15:46:31;;;;;;;;;;;;;;;;;;2204790;67;1712;-20
2023/04/08 15:49:01;;;;;;;;;;;;;;;;;;2204815;59;2311;-20
2023/04/08 15:51:34;;;;;;;;;;;;;;;;;;2205548;67;1451;-20
2023/04/08 15:54:04;;;;;;;;;;;;;;;;;;2205606;59;1539;-20
2023/04/08 15:56:35;;;;;;;;;;;;;;;;;;2204434;59;3633;-20
2023/04/08 15:59:05;;;;;;;;;;;;;;;;;;2205231;59;2573;-20
2023/04/08 16:01:35;;;;;;;;;;;;;;;;;;2206174;59;1777;-20
2023/04/08 16:04:06;;;;;;;;;;;;;;;;;;2204410;59;2216;-20
2023/04/08 16:06:37;;;;;;;;;;;;;;;;;;2205697;59;1398;-20
2023/04/08 16:09:09;;;;;;;;;;;;;;;;;;2205039;59;1921;-20
2023/04/08 16:11:40;;;;;;;;;;;;;;;;;;2204926;59;2241;-20
2023/04/08 16:14:11;;;;;;;;;;;;;;;;;;2204319;59;2127;-20
2023/04/08 16:16:46;;;;;;;;;;;;;;;;;;2203380;59;3266;-20
2023/04/08 16:19:16;;;;;;;;;;;;;;;;;;2200666;59;2180;-20
2023/04/08 16:21:46;;;;;;;;;;;;;;;;;;2204421;59;2162;-20
2023/04/08 16:24:19;;;;;;;;;;;;;;;;;;2204146;59;2177;-20
2023/04/08 16:26:49;;;;;;;;;;;;;;;;;;2205780;59;1819;-20
2023/04/08 16:29:21;;;;;;;;;;;;;;;;;;2205033;59;2120;-20
2023/04/08 16:31:51;;;;;;;;;;;;;;;;;;2202484;59;1753;-20
2023/04/08 16:34:22;;;;;;;;;;;;;;;;;;2205216;59;2021;-20
2023/04/08 16:36:52;;;;;;;;;;;;;;;;;;2205303;59;1310;-20
2023/04/08 16:39:23;;;;;;;;;;;;;;;;;;2201489;59;2255;-20
2023/04/08 16:41:53;;;;;;;;;;;;;;;;;;2205718;59;1260;-20
2023/04/08 16:44:23;;;;;;;;;;;;;;;;;;2205145;59;2338;-20
2023/04/08 16:46:54;;;;;;;;;;;;;;;;;;2202077;67;2134;-20
2023/04/08 16:49:24;;;;;;;;;;;;;;;;;;2202454;59;2240;-20
2023/04/08 16:51:54;;;;;;;;;;;;;;;;;;2205933;67;1326;-20
2023/04/08 16:54:25;;;;;;;;;;;;;;;;;;2204515;59;2180;-20
2023/04/08 16:56:55;;;;;;;;;;;;;;;;;;2206590;67;1152;-20
2023/04/08 16:59:26;;;;;;;;;;;;;;;;;;2204623;59;2274;-20
2023/04/08 17:01:57;;;;;;;;;;;;;;;;;;2201728;59;2113;-20
2023/04/08 17:04:27;;;;;;;;;;;;;;;;;;2201013;59;2117;-20
2023/04/08 17:06:58;;;;;;;;;;;;;;;;;;2204757;59;2263;-20
2023/04/08 17:09:28;;;;;;;;;;;;;;;;;;2201121;59;2278;-20
2023/04/08 17:11:58;;;;;;;;;;;;;;;;;;2204220;59;1627;-20
2023/04/08 17:14:28;;;;;;;;;;;;;;;;;;2205046;59;2095;-20
2023/04/08 17:16:59;;;;;;;;;;;;;;;;;;2205466;67;1130;-20
2023/04/08 17:19:32;;;;;;;;;;;;;;;;;;2201179;59;2271;-20
2023/04/08 17:22:03;;;;;;;;;;;;;;;;;;2205252;67;1592;-20
2023/04/08 17:24:33;;;;;;;;;;;;;;;;;;2204473;59;2283;-20
2023/04/08 17:27:04;;;;;;;;;;;;;;;;;;2201476;59;1718;-20
2023/04/08 17:29:34;;;;;;;;;;;;;;;;;;2201642;59;2283;-20
2023/04/08 17:32:05;;;;;;;;;;;;;;;;;;2205787;59;2098;-20